Laverlochere, Canada
Current Conditions -  °F | °C
As of 1:50 PM on Monday 20 Oct 2014 (Local Time) from CYXR Reporting Station
Light Rain Light Rain  
Wind Chill: 33°   Ceiling: 1000
Heat Index: 39°   Visibility: 9mi
Dew Point: 37°   Wind: 9mph
Humidity: 93%   Direction: 90°E
Pressure: 29.82"   Gusts: NA
Location:  47.42°N, 79.28°W
Report Text: CYXR 201750Z AUTO 09008KT 9SM -RA OVC010 04/03 A2982 RMK TS/LTNG TEMPO UNAVBL SLP107
Loading
Personal Weather Stations






























Interactive Weather Map
Tropical Storm Tracking
New forecast layout! Learn more

10-Day Weather Forecast

Advertisements
Track Severe Weather on mobile